createdAt,value
2022-12-25T00:04:08.229Z,18.78
2022-12-25T00:09:11.239Z,18.69
2022-12-25T00:14:13.030Z,18.73
2022-12-25T00:19:14.880Z,18.79
2022-12-25T00:24:16.998Z,18.74
2022-12-25T00:29:18.821Z,18.72
2022-12-25T00:34:20.882Z,18.70
2022-12-25T00:39:23.050Z,18.75
2022-12-25T00:44:25.015Z,18.76
2022-12-25T00:49:26.834Z,18.74
2022-12-25T00:54:28.689Z,18.78
2022-12-25T00:59:34.618Z,18.77
2022-12-25T01:04:36.606Z,18.78
2022-12-25T01:09:57.762Z,18.73
2022-12-25T01:15:00.974Z,18.77
2022-12-25T01:20:03.302Z,18.76
2022-12-25T01:25:06.518Z,18.76
2022-12-25T01:30:09.141Z,18.66
2022-12-25T01:35:12.218Z,18.74
2022-12-25T01:40:14.205Z,18.76
2022-12-25T01:45:36.780Z,18.75
2022-12-25T01:50:40.983Z,18.78
2022-12-25T01:55:46.373Z,18.71
2022-12-25T02:00:48.563Z,18.72
2022-12-25T02:05:51.885Z,18.78
2022-12-25T02:10:53.833Z,18.78
2022-12-25T02:16:06.237Z,18.76
2022-12-25T02:21:39.013Z,18.72
2022-12-25T02:27:07.461Z,18.70
2022-12-25T02:32:24.617Z,18.77
2022-12-25T02:37:32.870Z,18.71
2022-12-25T02:43:03.736Z,18.75
2022-12-25T02:48:25.621Z,18.78
2022-12-25T02:53:46.625Z,18.77
2022-12-25T02:59:08.520Z,18.72
2022-12-25T03:04:34.529Z,18.76
2022-12-25T03:10:00.030Z,18.71
2022-12-25T03:15:21.354Z,18.75
2022-12-25T03:20:41.976Z,18.75
2022-12-25T03:26:03.417Z,18.72
2022-12-25T03:31:17.495Z,18.73
2022-12-25T03:36:28.388Z,18.73
2022-12-25T03:42:14.344Z,18.75
2022-12-25T03:47:58.171Z,18.74
2022-12-25T03:53:22.674Z,18.74
2022-12-25T03:58:44.990Z,18.69
2022-12-25T04:04:05.448Z,18.67
2022-12-25T04:09:25.967Z,18.74
2022-12-25T04:14:46.370Z,18.74
2022-12-25T04:20:20.504Z,18.77
2022-12-25T04:26:00.439Z,18.74
2022-12-25T04:31:21.226Z,18.76
2022-12-25T04:36:23.177Z,18.69
2022-12-25T04:41:25.099Z,18.73
2022-12-25T04:46:27.133Z,18.67
2022-12-25T04:51:29.018Z,18.71
2022-12-25T04:56:30.857Z,18.65
2022-12-25T05:01:33.364Z,18.66
2022-12-25T05:06:35.355Z,18.78
2022-12-25T05:11:37.209Z,18.70
2022-12-25T05:16:39.080Z,18.69
2022-12-25T05:21:41.054Z,18.72
2022-12-25T05:26:42.913Z,18.66
2022-12-25T05:31:44.857Z,18.76
2022-12-25T05:36:47.241Z,18.71
2022-12-25T05:41:49.364Z,18.70
2022-12-25T05:46:51.300Z,18.73
2022-12-25T05:51:53.408Z,18.71
2022-12-25T05:56:55.188Z,18.65
2022-12-25T06:01:57.397Z,18.69
2022-12-25T06:06:59.316Z,18.75
2022-12-25T06:12:01.124Z,18.71
2022-12-25T06:17:03.171Z,18.71
2022-12-25T06:22:05.292Z,18.66
2022-12-25T06:27:07.318Z,18.71
2022-12-25T06:32:09.114Z,18.80
2022-12-25T06:37:11.120Z,18.71
2022-12-25T06:42:12.993Z,18.73
2022-12-25T06:47:18.275Z,18.68
2022-12-25T06:52:20.155Z,18.72
2022-12-25T06:57:22.124Z,18.72
2022-12-25T07:02:25.359Z,18.68
2022-12-25T07:07:27.449Z,18.72
2022-12-25T07:12:29.484Z,18.69
2022-12-25T07:17:31.359Z,18.60
2022-12-25T07:22:33.317Z,18.67
2022-12-25T07:27:35.144Z,18.64
2022-12-25T07:32:37.427Z,18.67
2022-12-25T07:37:39.566Z,18.51
2022-12-25T07:42:41.489Z,18.63
2022-12-25T07:47:43.668Z,18.65
2022-12-25T07:52:47.305Z,18.62
2022-12-25T07:57:49.302Z,18.66
2022-12-25T08:02:51.277Z,18.71
2022-12-25T08:07:57.655Z,18.76
2022-12-25T08:12:59.908Z,18.73
2022-12-25T08:18:01.806Z,18.68
2022-12-25T08:23:04.818Z,18.71
2022-12-25T08:28:06.820Z,18.56
2022-12-25T08:33:09.421Z,18.73
2022-12-25T08:38:11.562Z,18.70
2022-12-25T08:43:13.812Z,18.66
2022-12-25T08:48:15.886Z,18.68
2022-12-25T08:53:18.221Z,18.63
2022-12-25T08:58:20.121Z,18.54
2022-12-25T09:03:22.656Z,18.55
2022-12-25T09:08:24.729Z,18.66
2022-12-25T09:13:26.679Z,18.74
2022-12-25T09:18:28.441Z,18.68
2022-12-25T09:23:31.021Z,18.77
2022-12-25T09:28:34.360Z,18.80
2022-12-25T09:33:36.138Z,18.66
2022-12-25T09:38:38.205Z,18.72
2022-12-25T09:43:56.381Z,18.65
2022-12-25T09:49:36.047Z,18.71
2022-12-25T09:54:46.736Z,18.77
2022-12-25T09:59:48.633Z,18.65
2022-12-25T10:05:06.924Z,18.78
2022-12-25T10:10:27.377Z,18.75
2022-12-25T10:15:40.407Z,18.73
2022-12-25T10:20:53.593Z,18.77
2022-12-25T10:25:56.036Z,18.69
2022-12-25T10:31:02.454Z,18.74
2022-12-25T10:36:04.842Z,18.77
2022-12-25T10:41:32.528Z,18.73
2022-12-25T10:46:34.440Z,18.72
2022-12-25T10:51:38.440Z,18.74
2022-12-25T10:56:40.290Z,18.76
2022-12-25T11:01:42.647Z,18.77
2022-12-25T11:06:45.435Z,18.75
2022-12-25T11:11:48.454Z,18.71
2022-12-25T11:16:50.933Z,18.67
2022-12-25T11:21:56.084Z,18.73
2022-12-25T11:27:00.618Z,18.79
2022-12-25T11:32:04.364Z,18.73
2022-12-25T11:37:13.209Z,18.76
2022-12-25T11:42:24.769Z,18.75
2022-12-25T11:47:35.272Z,18.79
2022-12-25T11:52:40.573Z,18.77
2022-12-25T11:57:46.175Z,18.79
2022-12-25T12:03:24.390Z,18.77
2022-12-25T12:08:26.515Z,18.79
2022-12-25T12:13:51.443Z,18.63
2022-12-25T12:18:53.722Z,18.56
2022-12-25T12:24:17.441Z,18.52
2022-12-25T12:29:29.521Z,18.59
2022-12-25T12:34:52.034Z,18.67
2022-12-25T12:39:55.659Z,18.75
2022-12-25T12:45:06.950Z,18.80
2022-12-25T12:50:28.810Z,18.74
2022-12-25T12:55:34.271Z,18.78
2022-12-25T13:01:16.629Z,18.71
2022-12-25T13:06:35.576Z,18.63
2022-12-25T13:11:41.755Z,18.64
2022-12-25T13:16:46.744Z,18.68
2022-12-25T13:22:00.684Z,18.73
2022-12-25T13:27:16.476Z,18.72
2022-12-25T13:32:26.823Z,18.73
2022-12-25T13:37:31.295Z,18.73
2022-12-25T13:42:40.015Z,18.73
2022-12-25T13:47:43.704Z,18.79
2022-12-25T13:52:45.674Z,18.71
2022-12-25T13:57:50.728Z,18.75
2022-12-25T14:02:53.963Z,18.74
2022-12-25T14:07:58.193Z,18.74
2022-12-25T14:13:04.034Z,18.74
2022-12-25T14:18:06.408Z,18.78
2022-12-25T14:23:16.195Z,18.75
2022-12-25T14:28:32.820Z,18.74
2022-12-25T14:33:39.511Z,18.75
2022-12-25T14:38:44.328Z,18.77
2022-12-25T14:43:55.822Z,18.71
2022-12-25T14:49:05.534Z,18.72
2022-12-25T14:54:18.178Z,18.70
2022-12-25T14:59:27.136Z,18.76
2022-12-25T15:04:30.336Z,18.69
2022-12-25T15:09:32.361Z,18.77
2022-12-25T15:14:36.816Z,18.71
2022-12-25T15:19:39.223Z,18.71
2022-12-25T15:24:41.901Z,18.68
2022-12-25T15:30:09.135Z,18.62
2022-12-25T15:35:07.032Z,18.69
2022-12-25T15:40:12.198Z,18.66
2022-12-25T15:45:25.766Z,18.65
2022-12-25T15:50:27.829Z,18.72
2022-12-25T15:55:29.738Z,18.70
2022-12-25T16:00:32.052Z,18.71
2022-12-25T16:05:34.240Z,18.64
2022-12-25T16:10:38.971Z,18.64
2022-12-25T16:15:42.387Z,18.68
2022-12-25T16:20:44.361Z,18.75
2022-12-25T16:25:46.376Z,18.71
2022-12-25T16:30:48.852Z,18.65
2022-12-25T16:35:53.021Z,18.72
2022-12-25T16:40:57.128Z,18.71
2022-12-25T16:45:59.093Z,18.68
2022-12-25T16:51:01.454Z,18.61
2022-12-25T16:56:11.575Z,18.67
2022-12-25T17:01:16.723Z,18.65
2022-12-25T17:06:27.191Z,18.65
2022-12-25T17:11:30.437Z,18.66
2022-12-25T17:16:35.398Z,18.65
2022-12-25T17:21:38.682Z,18.63
2022-12-25T17:26:41.760Z,18.60
2022-12-25T17:31:43.683Z,18.59
2022-12-25T17:36:45.737Z,18.58
2022-12-25T17:41:50.859Z,18.60
2022-12-25T17:46:53.482Z,18.68
2022-12-25T17:51:55.747Z,18.58
2022-12-25T17:56:57.819Z,18.63
2022-12-25T18:02:00.205Z,18.70
2022-12-25T18:07:04.139Z,18.69
2022-12-25T18:12:06.526Z,18.69
2022-12-25T18:17:08.575Z,18.59
2022-12-25T18:22:10.849Z,18.68
2022-12-25T18:27:12.788Z,18.66
2022-12-25T18:32:14.741Z,18.59
2022-12-25T18:37:16.973Z,18.61
2022-12-25T18:42:37.558Z,18.73
2022-12-25T18:47:39.827Z,18.66
2022-12-25T18:52:49.908Z,18.60
2022-12-25T18:57:53.667Z,18.63
2022-12-25T19:02:59.467Z,18.61
2022-12-25T19:08:01.815Z,18.61
2022-12-25T19:13:04.141Z,18.58
2022-12-25T19:18:06.089Z,18.66
2022-12-25T19:23:08.910Z,18.65
2022-12-25T19:28:10.952Z,18.62
2022-12-25T19:33:17.639Z,18.72
2022-12-25T19:38:20.721Z,18.61
2022-12-25T19:43:22.718Z,18.61
2022-12-25T19:48:24.837Z,18.65
2022-12-25T19:53:27.680Z,18.63
2022-12-25T19:58:30.465Z,18.60
2022-12-25T20:03:33.885Z,18.66
2022-12-25T20:08:35.869Z,18.56
2022-12-25T20:13:37.990Z,18.61
2022-12-25T20:18:40.477Z,18.67
2022-12-25T20:23:43.845Z,18.66
2022-12-25T20:28:46.183Z,18.68
2022-12-25T20:33:48.740Z,18.65
2022-12-25T20:38:50.635Z,18.74
2022-12-25T20:43:52.953Z,18.79
2022-12-25T20:48:55.248Z,18.71
2022-12-25T20:53:57.351Z,18.46
2022-12-25T20:59:00.931Z,18.59
2022-12-25T21:04:02.874Z,18.68
2022-12-25T21:09:05.034Z,18.66
2022-12-25T21:14:07.076Z,18.80
2022-12-25T21:19:08.989Z,18.93
2022-12-25T21:24:11.163Z,18.92
2022-12-25T21:29:13.046Z,18.85
2022-12-25T21:34:14.967Z,18.87
2022-12-25T21:39:17.456Z,18.78
2022-12-25T21:44:19.456Z,18.82
2022-12-25T21:49:39.977Z,18.82
2022-12-25T21:54:42.199Z,18.84
2022-12-25T21:59:44.108Z,18.81
2022-12-25T22:04:45.892Z,18.82
2022-12-25T22:09:51.083Z,18.87
2022-12-25T22:14:55.866Z,18.73
2022-12-25T22:19:59.543Z,18.72
2022-12-25T22:25:03.681Z,18.71
2022-12-25T22:30:11.736Z,18.82
2022-12-25T22:35:14.556Z,18.84
2022-12-25T22:40:18.840Z,18.82
2022-12-25T22:45:20.844Z,18.85
2022-12-25T22:50:22.973Z,18.82
2022-12-25T22:55:24.790Z,18.79
2022-12-25T23:00:26.655Z,18.79
2022-12-25T23:05:28.737Z,18.77
2022-12-25T23:10:30.612Z,18.76
2022-12-25T23:15:32.761Z,18.79
2022-12-25T23:20:55.499Z,18.79
2022-12-25T23:26:10.258Z,18.79
2022-12-25T23:31:12.193Z,18.77
2022-12-25T23:36:14.269Z,18.77
2022-12-25T23:41:16.076Z,18.66
2022-12-25T23:46:17.948Z,18.76
2022-12-25T23:51:19.684Z,18.80
2022-12-25T23:56:22.115Z,18.71
